createdAt,value
2017-12-24T00:00:20.884Z,80.91
2017-12-24T00:01:01.662Z,80.91
2017-12-24T00:01:42.603Z,81.01
2017-12-24T00:02:22.969Z,80.81
2017-12-24T00:03:03.857Z,80.91
2017-12-24T00:03:44.311Z,81.01
2017-12-24T00:04:25.028Z,80.81
2017-12-24T00:05:05.538Z,81.2
2017-12-24T00:05:46.124Z,81.1
2017-12-24T00:06:26.985Z,81.01
2017-12-24T00:07:07.863Z,81.01
2017-12-24T00:07:49.442Z,80.72
2017-12-24T00:08:30.388Z,80.53
2017-12-24T00:09:10.868Z,80.81
2017-12-24T00:09:52.751Z,81.01
2017-12-24T00:10:34.012Z,81.2
2017-12-24T00:13:28.091Z,81.01
2017-12-24T00:14:08.474Z,80.62
2017-12-24T00:14:49.418Z,80.91
2017-12-24T00:15:30.932Z,81.2
2017-12-24T00:16:11.442Z,81.1
2017-12-24T00:16:53.118Z,80.72
2017-12-24T00:17:33.618Z,80.33
2017-12-24T00:18:14.211Z,80.57
2017-12-24T00:18:54.905Z,80.53
2017-12-24T00:19:35.874Z,80.15
2017-12-24T00:20:16.746Z,80.43
2017-12-24T00:20:57.091Z,79.96
2017-12-24T00:21:38.119Z,80.43
2017-12-24T00:22:18.552Z,80.81
2017-12-24T00:22:59.439Z,80.15
2017-12-24T00:23:40.376Z,80.53
2017-12-24T00:24:21.511Z,80.19
2017-12-24T00:25:02.173Z,80.38
2017-12-24T00:25:43.560Z,79.71
2017-12-24T00:26:24.015Z,79.96
2017-12-24T00:27:04.368Z,80.33
2017-12-24T00:27:45.529Z,80.33
2017-12-24T00:28:28.767Z,80.53
2017-12-24T00:29:09.204Z,80.62
2017-12-24T00:29:49.950Z,80.91
2017-12-24T00:30:31.131Z,80.91
2017-12-24T00:31:12.330Z,80.43
2017-12-24T00:31:52.358Z,80.33
2017-12-24T00:32:32.940Z,80.15
2017-12-24T00:33:13.473Z,80.24
2017-12-24T00:33:54.107Z,79.86
2017-12-24T00:34:34.379Z,80.24
2017-12-24T00:35:15.116Z,80.38
2017-12-24T00:35:56.117Z,80.38
2017-12-24T00:36:36.548Z,79.8
2017-12-24T00:37:18.038Z,79.52
2017-12-24T00:37:58.414Z,79.77
2017-12-24T00:38:38.959Z,80.24
2017-12-24T00:39:20.989Z,80.72
2017-12-24T00:40:01.325Z,81.01
2017-12-24T00:40:42.192Z,80.53
2017-12-24T00:41:23.319Z,80.33
2017-12-24T00:42:04.320Z,80.81
2017-12-24T00:42:44.270Z,80.72
2017-12-24T00:43:25.327Z,80.33
2017-12-24T00:44:06.191Z,80.62
2017-12-24T00:44:46.558Z,80.72
2017-12-24T00:45:27.597Z,81.29
2017-12-24T00:46:08.491Z,80.72
2017-12-24T00:46:48.979Z,80.91
2017-12-24T00:47:30.349Z,80.72
2017-12-24T00:48:10.867Z,80.81
2017-12-24T00:48:51.442Z,80.81
2017-12-24T00:49:32.340Z,81.2
2017-12-24T00:50:12.718Z,80.62
2017-12-24T00:50:53.100Z,80.43
2017-12-24T00:51:33.554Z,80.38
2017-12-24T00:52:14.300Z,80.66
2017-12-24T00:52:54.726Z,80.53
2017-12-24T00:53:35.160Z,79.86
2017-12-24T00:54:15.716Z,80.33
2017-12-24T00:54:56.353Z,80.33
2017-12-24T00:55:36.891Z,80.24
2017-12-24T00:56:18.027Z,80.33
2017-12-24T00:56:58.737Z,80.33
2017-12-24T00:57:39.046Z,80.24
2017-12-24T00:58:21.145Z,80.24
2017-12-24T00:59:01.701Z,80.43
2017-12-24T00:59:42.244Z,80.53
2017-12-24T01:00:22.652Z,80.43
2017-12-24T01:01:05.990Z,81.01
2017-12-24T01:01:48.000Z,80.91
2017-12-24T01:02:28.909Z,81.01
2017-12-24T01:03:09.572Z,81.29
2017-12-24T01:03:49.917Z,81.58
2017-12-24T01:04:30.632Z,81.29
2017-12-24T01:05:11.506Z,81.67
2017-12-24T01:05:52.145Z,81.48
2017-12-24T01:06:32.706Z,81.58
2017-12-24T01:07:13.791Z,81.1
2017-12-24T01:07:54.173Z,81.29
2017-12-24T01:08:35.210Z,81.1
2017-12-24T01:09:15.648Z,80.72
2017-12-24T01:09:56.349Z,81.01
2017-12-24T01:10:37.041Z,80.72
2017-12-24T01:11:18.590Z,81.01
2017-12-24T01:13:14.547Z,81.29
2017-12-24T01:15:10.291Z,81.29
2017-12-24T01:15:51.633Z,81.29
2017-12-24T01:16:31.920Z,81.48
2017-12-24T01:17:12.157Z,81.48
2017-12-24T01:17:54.061Z,81.38
2017-12-24T01:18:34.842Z,81.86
2017-12-24T01:19:15.476Z,81.2
2017-12-24T01:19:56.724Z,81.1
2017-12-24T01:20:38.381Z,81.29
2017-12-24T01:21:18.978Z,80.15
2017-12-24T01:21:59.816Z,81.01
2017-12-24T01:22:40.468Z,81.2
2017-12-24T01:23:21.121Z,81.38
2017-12-24T01:24:01.936Z,81.01
2017-12-24T01:24:42.812Z,81.38
2017-12-24T01:25:23.507Z,81.1
2017-12-24T01:26:04.319Z,80.72
2017-12-24T01:26:44.882Z,80.72
2017-12-24T01:27:26.123Z,81.1
2017-12-24T01:28:06.716Z,81.01
2017-12-24T01:28:48.777Z,80.91
2017-12-24T01:29:30.309Z,80.53
2017-12-24T01:30:11.775Z,80.81
2017-12-24T01:30:52.289Z,80.24
2017-12-24T01:31:33.647Z,79.96
2017-12-24T01:32:13.651Z,80.24
2017-12-24T01:32:54.358Z,79.57
2017-12-24T01:33:34.923Z,80.24
2017-12-24T01:34:15.452Z,79.57
2017-12-24T01:34:56.078Z,79.8
2017-12-24T01:35:36.470Z,79.71
2017-12-24T01:36:16.898Z,79.43
2017-12-24T01:36:57.835Z,79.43
2017-12-24T01:37:38.343Z,78.52
2017-12-24T01:38:18.775Z,79.28
2017-12-24T01:39:00.140Z,79.67
2017-12-24T01:39:40.524Z,79.67
2017-12-24T01:40:21.157Z,79.86
2017-12-24T01:41:01.673Z,80.05
2017-12-24T01:41:42.930Z,80.15
2017-12-24T01:42:23.423Z,80.24
2017-12-24T01:43:04.370Z,80.43
2017-12-24T01:47:57.354Z,80.33
2017-12-24T01:48:46.104Z,80.15
2017-12-24T01:49:35.529Z,79.57
2017-12-24T01:50:29.092Z,79.86
2017-12-24T01:51:18.906Z,79.52
2017-12-24T01:51:59.237Z,79.1
2017-12-24T01:54:00.854Z,79.61
2017-12-24T01:54:43.104Z,79.43
2017-12-24T01:56:39.677Z,79.43
2017-12-24T01:57:20.038Z,79.33
2017-12-24T01:58:00.579Z,79.1
2017-12-24T01:58:41.547Z,79.52
2017-12-24T01:59:22.487Z,79.23
2017-12-24T02:00:02.549Z,79.43
2017-12-24T02:00:43.027Z,79.28
2017-12-24T02:01:23.410Z,79.19
2017-12-24T02:02:03.970Z,79.67
2017-12-24T02:02:45.247Z,80.43
2017-12-24T02:03:26.021Z,80.24
2017-12-24T02:04:06.530Z,80.24
2017-12-24T02:04:47.322Z,80.43
2017-12-24T02:05:28.350Z,79.67
2017-12-24T02:06:08.774Z,80.43
2017-12-24T02:06:49.156Z,80.15
2017-12-24T02:07:29.872Z,80.43
2017-12-24T02:08:10.461Z,79.86
2017-12-24T02:08:51.950Z,79.86
2017-12-24T02:09:32.223Z,79.86
2017-12-24T02:10:12.929Z,79.9
2017-12-24T02:10:53.868Z,79.77
2017-12-24T02:11:34.487Z,79.57
2017-12-24T02:12:15.113Z,79.33
2017-12-24T02:12:55.697Z,79.33
2017-12-24T02:15:18.327Z,79.33
2017-12-24T02:15:56.718Z,79.8
2017-12-24T02:16:37.690Z,79.9
2017-12-24T02:17:18.112Z,79.57
2017-12-24T02:17:59.366Z,80.24
2017-12-24T02:18:39.856Z,79.86
2017-12-24T02:19:20.245Z,79.99
2017-12-24T02:20:00.588Z,79.77
2017-12-24T02:20:42.126Z,80.05
2017-12-24T02:21:21.838Z,80.62
2017-12-24T02:22:02.209Z,81.01
2017-12-24T02:22:43.455Z,81.01
2017-12-24T02:23:23.922Z,81.01
2017-12-24T02:24:04.524Z,81.38
2017-12-24T02:24:44.955Z,80.81
2017-12-24T02:25:26.071Z,81.01
2017-12-24T02:26:06.945Z,80.43
2017-12-24T02:26:47.425Z,80.53
2017-12-24T02:27:27.870Z,80.72
2017-12-24T02:28:09.427Z,80.72
2017-12-24T02:28:49.894Z,81.1
2017-12-24T02:29:30.697Z,81.2
2017-12-24T02:30:11.236Z,80.72
2017-12-24T02:30:51.832Z,80.43
2017-12-24T02:31:32.928Z,80.62
2017-12-24T02:32:13.628Z,80.62
2017-12-24T02:32:53.956Z,80.81
2017-12-24T02:33:34.501Z,80.33
2017-12-24T02:34:15.802Z,80.33
2017-12-24T02:34:56.835Z,80.33
2017-12-24T02:35:37.178Z,80.62
2017-12-24T02:36:17.562Z,80.62
2017-12-24T02:36:58.320Z,80.33
2017-12-24T02:37:39.291Z,80.43
2017-12-24T02:38:20.355Z,80.62
2017-12-24T02:39:03.693Z,80.91
2017-12-24T02:39:44.772Z,80.72
2017-12-24T02:40:25.366Z,80.81
2017-12-24T02:41:06.347Z,80.62
2017-12-24T02:41:47.127Z,80.53
2017-12-24T02:42:27.704Z,80.24
2017-12-24T02:43:08.361Z,80.24
2017-12-24T02:43:48.895Z,80.43
2017-12-24T02:44:29.603Z,80.15
2017-12-24T02:45:10.119Z,80.33
2017-12-24T02:45:51.215Z,80.33
2017-12-24T02:46:31.717Z,80.24
2017-12-24T02:47:12.273Z,80.53
2017-12-24T02:47:53.145Z,80.43
2017-12-24T02:48:33.708Z,80.62
2017-12-24T02:49:14.073Z,80.24
2017-12-24T02:49:54.948Z,79.67
2017-12-24T02:50:35.962Z,79.96
2017-12-24T02:51:16.033Z,80.15
2017-12-24T02:51:56.679Z,80.05
2017-12-24T02:52:37.244Z,80.33
2017-12-24T02:53:17.879Z,80.81
2017-12-24T02:53:58.333Z,80.43
2017-12-24T02:54:39.273Z,80.53
2017-12-24T02:55:19.918Z,80.15
2017-12-24T02:56:00.592Z,80.43
2017-12-24T02:56:41.134Z,80.53
2017-12-24T02:57:21.743Z,80.43
2017-12-24T02:58:02.497Z,80.62
2017-12-24T02:58:43.495Z,80.91
2017-12-24T02:59:23.971Z,80.62
2017-12-24T03:00:04.748Z,80.53
2017-12-24T03:00:45.506Z,81.01
2017-12-24T03:01:26.198Z,80.72
2017-12-24T03:02:06.792Z,80.62
2017-12-24T03:02:47.367Z,81.1
2017-12-24T03:03:27.833Z,80.81
2017-12-24T03:04:09.072Z,80.53
2017-12-24T03:04:50.132Z,80.53
2017-12-24T03:05:30.981Z,80.33
2017-12-24T03:06:11.417Z,80.62
2017-12-24T03:06:51.774Z,80.43
2017-12-24T03:07:32.468Z,80.33
2017-12-24T03:08:13.764Z,80.15
2017-12-24T03:08:54.193Z,79.67
2017-12-24T03:09:35.028Z,79.48
2017-12-24T03:10:15.820Z,80.24
2017-12-24T03:10:57.606Z,80.43
2017-12-24T03:11:38.455Z,80.33
2017-12-24T03:12:20.167Z,80.72
2017-12-24T03:13:00.694Z,80.53
2017-12-24T03:13:41.488Z,80.33
2017-12-24T03:14:22.115Z,79.96
2017-12-24T03:15:02.630Z,80.33
2017-12-24T03:15:43.347Z,80.33
2017-12-24T03:16:23.925Z,79.67
2017-12-24T03:17:04.448Z,80.33
2017-12-24T03:17:44.851Z,80.15
2017-12-24T03:18:25.396Z,80.24
2017-12-24T03:19:06.700Z,80.33
2017-12-24T03:19:47.818Z,80.33
2017-12-24T03:20:28.564Z,80.81
2017-12-24T03:22:53.766Z,81.2
2017-12-24T03:23:34.902Z,81.29
2017-12-24T03:24:15.575Z,80.81
2017-12-24T03:24:56.369Z,80.72
2017-12-24T03:25:37.208Z,80.72
2017-12-24T03:27:31.559Z,81.01
2017-12-24T03:28:14.953Z,81.2
2017-12-24T03:28:55.648Z,81.29
2017-12-24T03:29:36.494Z,80.91
2017-12-24T03:30:16.924Z,81.38
2017-12-24T03:30:57.414Z,81.1
2017-12-24T03:31:38.056Z,81.48
2017-12-24T03:32:18.427Z,81.67
2017-12-24T03:32:58.933Z,81.48
2017-12-24T03:33:39.386Z,81.38
2017-12-24T03:34:20.760Z,81.29
2017-12-24T03:35:01.225Z,82.24
2017-12-24T03:35:42.720Z,81.96
2017-12-24T03:36:22.674Z,81.48
2017-12-24T03:37:03.139Z,81.58
2017-12-24T03:37:43.704Z,81.29
2017-12-24T03:38:24.983Z,81.2
2017-12-24T03:39:05.214Z,81.01
2017-12-24T03:39:45.809Z,81.29
2017-12-24T03:40:26.084Z,81.1
2017-12-24T03:41:06.505Z,81.01
2017-12-24T03:41:47.254Z,81.1
2017-12-24T03:42:28.039Z,80.81
2017-12-24T03:43:08.985Z,80.33
2017-12-24T03:43:49.717Z,80.53
2017-12-24T03:44:30.657Z,80.53
2017-12-24T03:45:11.415Z,80.47
2017-12-24T03:45:52.517Z,79.86
2017-12-24T03:46:33.087Z,80.24
2017-12-24T03:47:14.244Z,80.47
2017-12-24T03:47:55.291Z,80.33
2017-12-24T03:48:35.496Z,80.33
2017-12-24T03:49:16.228Z,80.33
2017-12-24T03:49:56.703Z,80.33
2017-12-24T03:50:38.469Z,80.19
2017-12-24T03:51:18.712Z,80.24
2017-12-24T03:51:59.737Z,80.33
2017-12-24T03:52:40.210Z,80.33
2017-12-24T03:53:20.781Z,80.24
2017-12-24T03:54:01.685Z,79.96
2017-12-24T03:54:42.070Z,80.15
2017-12-24T03:55:22.694Z,80.43
2017-12-24T03:56:03.413Z,80.33
2017-12-24T03:56:44.187Z,80.62
2017-12-24T03:57:25.358Z,81.01
2017-12-24T03:58:05.565Z,80.81
2017-12-24T03:58:46.132Z,80.72
2017-12-24T03:59:27.020Z,80.91
2017-12-24T04:00:08.031Z,80.53
2017-12-24T04:00:48.527Z,80.24
2017-12-24T04:01:28.935Z,80.81
2017-12-24T04:41:24.695Z,83.64
2017-12-24T04:42:12.351Z,83.16
2017-12-24T04:42:52.495Z,83.44
2017-12-24T04:43:33.110Z,83.35
2017-12-24T04:44:17.967Z,83.54
2017-12-24T04:44:56.353Z,82.97
2017-12-24T04:45:36.999Z,82.78
2017-12-24T04:46:19.487Z,82.4
2017-12-24T04:47:00.685Z,82.49
2017-12-24T04:47:41.237Z,82.2
2017-12-24T04:48:28.685Z,82.78
2017-12-24T04:49:08.734Z,82.78
2017-12-24T04:49:53.011Z,82.49
2017-12-24T04:50:34.332Z,82.3
2017-12-24T04:51:21.718Z,82.3
2017-12-24T04:52:02.135Z,82.01
2017-12-24T04:52:42.794Z,82.34
2017-12-24T04:53:23.254Z,81.63
2017-12-24T04:54:03.969Z,82.2
2017-12-24T04:54:44.359Z,82.24
2017-12-24T04:55:25.088Z,81.92
2017-12-24T04:56:05.359Z,82.11
2017-12-24T04:56:46.753Z,82.01
2017-12-24T04:57:28.252Z,82.78
2017-12-24T04:58:08.531Z,82.68
2017-12-24T04:58:49.011Z,82.3
2017-12-24T04:59:29.611Z,82.49
2017-12-24T05:00:10.436Z,82.68
2017-12-24T05:00:51.021Z,82.68
2017-12-24T05:01:31.557Z,83.06
2017-12-24T05:02:13.481Z,82.78
2017-12-24T05:02:54.642Z,83.25
2017-12-24T05:05:47.079Z,82.63
2017-12-24T05:07:47.991Z,82.43
2017-12-24T05:08:27.895Z,82.43
2017-12-24T05:09:08.488Z,81.86
2017-12-24T05:09:48.876Z,81.38
2017-12-24T05:10:29.271Z,81.29
2017-12-24T05:11:09.899Z,80.81
2017-12-24T05:11:51.271Z,80.72
2017-12-24T05:12:31.606Z,80.15
2017-12-24T05:13:11.968Z,80.72
2017-12-24T05:13:52.726Z,81.2
2017-12-24T05:14:33.127Z,81.67
2017-12-24T05:15:13.664Z,81.48
2017-12-24T05:15:55.994Z,81.29
2017-12-24T05:16:36.839Z,81.96
2017-12-24T05:17:17.542Z,82.24
2017-12-24T05:17:58.959Z,81.58
2017-12-24T05:18:39.620Z,81.48
2017-12-24T05:19:20.515Z,81.38
2017-12-24T05:20:01.160Z,81.2
2017-12-24T05:20:41.884Z,81.48
2017-12-24T05:21:22.729Z,81.29
2017-12-24T05:22:03.239Z,81.48
2017-12-24T05:22:43.726Z,81.38
2017-12-24T05:23:24.040Z,82.06
2017-12-24T05:24:04.595Z,82.11
2017-12-24T05:24:45.542Z,81.96
2017-12-24T05:25:26.199Z,81.96
2017-12-24T05:26:07.309Z,81.96
2017-12-24T05:26:47.327Z,81.77
2017-12-24T05:27:28.028Z,82.34
2017-12-24T05:28:08.866Z,82.34
2017-12-24T05:28:49.422Z,82.4
2017-12-24T05:29:29.918Z,82.34
2017-12-24T05:30:10.414Z,82.34
2017-12-24T05:30:50.954Z,82.63
2017-12-24T05:31:31.922Z,82.3
2017-12-24T05:32:12.277Z,82.82
2017-12-24T05:32:53.266Z,82.63
2017-12-24T05:33:33.893Z,82.06
2017-12-24T05:34:14.687Z,82.15
2017-12-24T05:34:55.759Z,81.77
2017-12-24T05:35:38.126Z,81.96
2017-12-24T05:36:18.557Z,81.96
2017-12-24T05:36:59.160Z,81.48
2017-12-24T05:37:39.469Z,81.38
2017-12-24T05:38:19.882Z,81.48
2017-12-24T05:39:01.153Z,81.67
2017-12-24T05:39:42.529Z,81.48
2017-12-24T05:40:23.140Z,81.48
2017-12-24T05:41:03.370Z,81.58
2017-12-24T05:41:44.288Z,81.2
2017-12-24T05:42:24.980Z,81.48
2017-12-24T05:43:05.300Z,81.77
2017-12-24T05:43:45.564Z,81.67
2017-12-24T05:44:26.713Z,81.01
2017-12-24T05:45:07.155Z,81.1
2017-12-24T05:45:48.244Z,81.2
2017-12-24T05:46:28.753Z,81.29
2017-12-24T05:47:10.292Z,80.91
2017-12-24T05:47:50.690Z,81.1
2017-12-24T05:48:31.247Z,81.1
2017-12-24T05:49:14.974Z,81.01
2017-12-24T05:49:55.669Z,80.91
2017-12-24T05:50:36.376Z,81.38
2017-12-24T05:51:16.745Z,81.77
2017-12-24T05:51:59.277Z,82.06
2017-12-24T05:52:39.980Z,82.34
2017-12-24T05:53:20.535Z,81.77
2017-12-24T05:54:01.397Z,81.01
2017-12-24T05:54:41.989Z,81.1
2017-12-24T05:55:22.554Z,81.2
2017-12-24T05:56:03.525Z,81.48
2017-12-24T05:56:43.818Z,81.2
2017-12-24T05:57:24.557Z,81.01
2017-12-24T05:59:24.559Z,80.43
2017-12-24T06:02:03.485Z,80.62
2017-12-24T06:02:44.936Z,80.24
2017-12-24T06:03:25.394Z,80.33
2017-12-24T06:04:06.712Z,79.86
2017-12-24T06:04:47.810Z,79.19
2017-12-24T06:05:28.322Z,79.19
2017-12-24T06:06:08.761Z,79.43
2017-12-24T06:06:49.233Z,79.04
2017-12-24T06:07:30.647Z,79.33
2017-12-24T06:08:12.108Z,79.33
2017-12-24T06:08:52.276Z,79.43
2017-12-24T06:09:32.730Z,79.33
2017-12-24T06:10:13.110Z,79.43
2017-12-24T06:10:53.599Z,79.43
2017-12-24T06:11:34.462Z,78.81
2017-12-24T06:12:14.956Z,79.43
2017-12-24T06:12:55.287Z,79.33
2017-12-24T06:13:36.650Z,79.28
2017-12-24T06:14:17.089Z,79.38
2017-12-24T06:14:58.187Z,79.38
2017-12-24T06:15:38.761Z,79.38
2017-12-24T06:16:19.896Z,79.1
2017-12-24T06:17:00.839Z,79.38
2017-12-24T06:17:41.366Z,79.1
2017-12-24T06:18:22.757Z,79.38
2017-12-24T06:19:02.522Z,79
2017-12-24T06:19:43.177Z,79.1
2017-12-24T06:20:24.129Z,79.19
2017-12-24T06:21:05.392Z,80.33
2017-12-24T06:21:45.934Z,79.86
2017-12-24T06:22:26.549Z,79.38
2017-12-24T06:23:06.950Z,79.77
2017-12-24T06:23:47.713Z,80.15
2017-12-24T06:24:27.995Z,80.33
2017-12-24T06:25:09.058Z,79.86
2017-12-24T06:25:49.451Z,79.19
2017-12-24T06:26:29.883Z,79.28
2017-12-24T06:27:10.352Z,79.28
2017-12-24T06:27:50.979Z,79.77
2017-12-24T06:28:31.315Z,79.28
2017-12-24T06:29:12.015Z,79.67
2017-12-24T06:29:53.761Z,79.28
2017-12-24T06:30:34.295Z,79.14
2017-12-24T06:31:14.616Z,79.19
2017-12-24T06:31:55.365Z,78.62
2017-12-24T06:32:35.917Z,78.72
2017-12-24T06:33:16.439Z,79.57
2017-12-24T06:33:56.998Z,79.77
2017-12-24T06:34:37.895Z,79.38
2017-12-24T06:35:18.426Z,79.96
2017-12-24T06:35:58.958Z,79.28
2017-12-24T06:36:39.452Z,79.48
2017-12-24T06:37:20.964Z,80.24
2017-12-24T06:38:01.541Z,79.19
2017-12-24T06:38:42.240Z,79.19
2017-12-24T06:39:22.619Z,78.91
2017-12-24T06:40:03.311Z,79.38
2017-12-24T06:40:43.688Z,79.19
2017-12-24T06:41:24.556Z,79.38
2017-12-24T06:42:05.193Z,79.19
2017-12-24T06:42:45.693Z,79.96
2017-12-24T06:43:26.697Z,79.19
2017-12-24T06:44:07.188Z,79.86
2017-12-24T06:44:47.904Z,79.57
2017-12-24T06:45:29.205Z,79.57
2017-12-24T06:46:09.796Z,79.67
2017-12-24T06:46:50.422Z,79.77
2017-12-24T06:47:31.190Z,79.38
2017-12-24T06:48:12.111Z,79.38
2017-12-24T06:48:53.092Z,79.48
2017-12-24T06:49:33.825Z,79.19
2017-12-24T06:50:14.276Z,79.57
2017-12-24T06:50:54.895Z,79.28
2017-12-24T06:51:36.260Z,78.72
2017-12-24T06:52:16.780Z,79.1
2017-12-24T06:52:58.065Z,79.23
2017-12-24T06:53:38.636Z,78.72
2017-12-24T06:54:19.695Z,78.62
2017-12-24T06:55:00.198Z,78.81
2017-12-24T06:55:40.620Z,78.72
2017-12-24T06:56:21.527Z,79.19
2017-12-24T06:57:03.539Z,79.28
2017-12-24T06:57:43.030Z,79.28
2017-12-24T06:58:23.880Z,78.91
2017-12-24T07:00:47.246Z,79.96
2017-12-24T07:01:25.157Z,79.48
2017-12-24T07:02:05.580Z,79.28
2017-12-24T07:02:46.350Z,79.28
2017-12-24T07:03:27.961Z,79.38
2017-12-24T07:04:08.767Z,79.19
2017-12-24T07:04:49.220Z,79.38
2017-12-24T07:05:29.471Z,78.75
2017-12-24T07:06:09.983Z,78.33
2017-12-24T07:06:50.665Z,79.28
2017-12-24T07:07:31.729Z,78.62
2017-12-24T07:08:12.102Z,79.28
2017-12-24T07:08:52.543Z,78.72
2017-12-24T07:09:32.930Z,79.19
2017-12-24T07:10:13.771Z,79.86
2017-12-24T07:10:54.502Z,79.48
2017-12-24T07:11:35.430Z,79.19
2017-12-24T07:12:16.118Z,79.38
2017-12-24T07:12:56.616Z,79.77
2017-12-24T07:13:37.125Z,79.38
2017-12-24T07:14:17.460Z,79.28
2017-12-24T07:14:57.927Z,79.19
2017-12-24T07:15:39.065Z,78.72
2017-12-24T07:17:37.324Z,79.19
2017-12-24T07:18:20.576Z,79
2017-12-24T07:19:00.953Z,78.91
2017-12-24T07:19:41.557Z,79.28
2017-12-24T07:20:21.962Z,78.72
2017-12-24T07:21:02.681Z,78.72
2017-12-24T07:21:43.290Z,78.81
2017-12-24T07:22:23.466Z,78.62
2017-12-24T07:23:04.034Z,78.72
2017-12-24T07:23:44.684Z,78.14
2017-12-24T07:24:25.099Z,78.81
2017-12-24T07:25:05.437Z,79.19
2017-12-24T07:25:45.832Z,78.62
2017-12-24T07:28:06.395Z,78.62
2017-12-24T07:28:58.531Z,78.37
2017-12-24T07:31:25.087Z,78.72
2017-12-24T07:34:08.698Z,78.62
2017-12-24T07:34:49.070Z,78.72
2017-12-24T07:35:29.710Z,78.43
2017-12-24T07:36:10.454Z,79
2017-12-24T07:36:50.871Z,79.19
2017-12-24T07:37:31.837Z,79.57
2017-12-24T07:38:12.548Z,79.38
2017-12-24T07:38:52.890Z,79.28
2017-12-24T07:39:33.997Z,79.86
2017-12-24T07:40:14.286Z,79.67
2017-12-24T07:40:55.041Z,79.77
2017-12-24T07:41:35.129Z,79.67
2017-12-24T07:42:15.617Z,79.38
2017-12-24T07:42:56.108Z,79.38
2017-12-24T07:43:36.914Z,79.19
2017-12-24T07:44:17.303Z,79.57
2017-12-24T07:44:57.941Z,79.67
2017-12-24T07:45:38.668Z,79.77
2017-12-24T07:46:19.012Z,80.33
2017-12-24T07:46:59.678Z,79.86
2017-12-24T07:47:40.045Z,79.19
2017-12-24T07:48:20.948Z,79.38
2017-12-24T07:49:02.067Z,79.86
2017-12-24T07:49:42.386Z,80.05
2017-12-24T07:50:22.798Z,79.77
2017-12-24T07:51:03.346Z,79.38
2017-12-24T07:51:43.789Z,79.77
2017-12-24T07:52:24.526Z,79.77
2017-12-24T07:53:04.933Z,79.77
2017-12-24T07:53:46.350Z,79.67
2017-12-24T07:54:27.230Z,79.77
2017-12-24T07:55:08.841Z,79.77
2017-12-24T07:55:49.739Z,80.33
2017-12-24T07:56:30.053Z,80.15
2017-12-24T07:57:10.536Z,80.24
2017-12-24T07:57:51.311Z,80.15
2017-12-24T07:58:32.003Z,80.05
2017-12-24T07:59:12.781Z,79.77
2017-12-24T07:59:53.767Z,79.28
2017-12-24T08:00:34.214Z,79.57
2017-12-24T08:01:15.530Z,79.38
2017-12-24T08:01:56.095Z,78.81
2017-12-24T08:02:36.807Z,78.62
2017-12-24T08:03:17.936Z,78.23
2017-12-24T08:03:57.808Z,78.62
2017-12-24T08:04:38.401Z,78.52
2017-12-24T08:05:20.817Z,78.72
2017-12-24T08:06:01.416Z,79.38
2017-12-24T08:06:43.166Z,79.1
2017-12-24T08:07:23.580Z,79.38
2017-12-24T08:08:03.830Z,79.19
2017-12-24T08:08:44.344Z,78.91
2017-12-24T08:09:25.155Z,79
2017-12-24T08:10:05.822Z,79.1
2017-12-24T08:10:46.962Z,79.38
2017-12-24T08:11:27.712Z,78.72
2017-12-24T08:12:08.287Z,78.72
2017-12-24T08:12:49.147Z,78.52
2017-12-24T08:13:30.470Z,79
2017-12-24T08:14:10.905Z,79.38
2017-12-24T08:14:51.989Z,79.28
2017-12-24T08:15:32.325Z,79.48
2017-12-24T08:16:13.819Z,79.48
2017-12-24T08:16:53.416Z,79.19
2017-12-24T08:17:34.027Z,79.19
2017-12-24T08:18:15.339Z,79.38
2017-12-24T08:18:55.935Z,79.57
2017-12-24T08:19:37.015Z,79.38
2017-12-24T08:20:17.356Z,79.77
2017-12-24T08:20:57.790Z,79.28
2017-12-24T08:21:38.730Z,79.57
2017-12-24T08:23:41.284Z,80.43
2017-12-24T08:25:07.528Z,79.57
2017-12-24T08:25:48.046Z,79.96
2017-12-24T08:26:28.779Z,80.43
2017-12-24T08:27:10.532Z,80.15
2017-12-24T08:27:51.096Z,79.48
2017-12-24T08:28:32.645Z,79.57
2017-12-24T08:29:12.969Z,79.57
2017-12-24T08:29:53.361Z,79.96
2017-12-24T08:30:37.237Z,79.77
2017-12-24T08:31:17.763Z,79.48
2017-12-24T08:31:58.860Z,79.86
2017-12-24T08:32:39.850Z,79.19
2017-12-24T08:33:20.557Z,79.86
2017-12-24T08:34:01.997Z,80.43
2017-12-24T08:36:37.412Z,80.43
2017-12-24T08:37:17.955Z,80.24
2017-12-24T08:37:58.750Z,80.43
2017-12-24T08:38:39.169Z,80.33
2017-12-24T08:39:19.689Z,80.15
2017-12-24T08:40:01.511Z,79.67
2017-12-24T08:40:41.773Z,79.28
2017-12-24T08:41:23.999Z,79.28
2017-12-24T08:42:03.950Z,79.48
2017-12-24T08:42:44.776Z,79.28
2017-12-24T08:43:25.330Z,79.38
2017-12-24T08:44:05.801Z,79.28
2017-12-24T08:44:46.412Z,79.28
2017-12-24T08:45:26.956Z,79.96
2017-12-24T08:46:07.243Z,79.28
2017-12-24T08:46:49.293Z,79.14
2017-12-24T08:47:29.661Z,78.75
2017-12-24T08:48:10.749Z,78.28
2017-12-24T08:48:50.789Z,78.66
2017-12-24T08:49:31.345Z,78.28
2017-12-24T08:50:12.066Z,78.47
2017-12-24T08:50:52.566Z,78.09
2017-12-24T08:51:33.152Z,78.18
2017-12-24T08:52:14.255Z,77.99
2017-12-24T08:52:54.892Z,77.89
2017-12-24T08:53:35.538Z,78.94
2017-12-24T08:54:16.785Z,78.28
2017-12-24T08:54:57.537Z,78.47
2017-12-24T08:55:38.622Z,78.37
2017-12-24T08:56:19.225Z,77.89
2017-12-24T08:56:59.581Z,77.61
2017-12-24T08:57:40.001Z,78.28
2017-12-24T08:58:20.582Z,77.42
2017-12-24T08:59:00.991Z,78.47
2017-12-24T08:59:41.361Z,78.09
2017-12-24T09:00:21.803Z,78.18
2017-12-24T09:01:02.197Z,77.8
2017-12-24T09:01:42.682Z,77.32
2017-12-24T09:02:23.346Z,77.89
2017-12-24T09:03:04.081Z,77.89
2017-12-24T09:03:44.933Z,77.99
2017-12-24T09:04:25.874Z,77.99
2017-12-24T09:05:06.234Z,78.66
2017-12-24T09:05:46.661Z,78.75
2017-12-24T09:06:27.420Z,78.75
2017-12-24T09:07:08.237Z,78.66
2017-12-24T09:07:48.813Z,78.28
2017-12-24T09:08:29.320Z,78.62
2017-12-24T09:09:09.774Z,78.75
2017-12-24T09:09:50.285Z,78.75
2017-12-24T09:10:30.683Z,78.56
2017-12-24T09:11:11.626Z,78.37
2017-12-24T09:11:52.399Z,78.52
2017-12-24T09:15:02.831Z,78.75
2017-12-24T09:17:04.293Z,78.56
2017-12-24T09:17:44.140Z,78.75
2017-12-24T09:18:24.691Z,78.91
2017-12-24T09:19:05.363Z,79
2017-12-24T09:19:49.173Z,79.61
2017-12-24T09:20:31.766Z,78.66
2017-12-24T09:21:16.626Z,79.33
2017-12-24T09:21:57.587Z,78.85
2017-12-24T09:22:38.022Z,78.52
2017-12-24T09:23:18.347Z,78.81
2017-12-24T09:23:59.881Z,79.28
2017-12-24T09:24:39.672Z,79.28
2017-12-24T09:25:20.294Z,79
2017-12-24T09:26:01.226Z,79.28
2017-12-24T09:26:42.896Z,79.38
2017-12-24T09:27:23.892Z,79.38
2017-12-24T09:28:11.814Z,79.28
2017-12-24T09:28:52.002Z,79.19
2017-12-24T09:29:33.056Z,79.28
2017-12-24T09:30:13.747Z,79.38
2017-12-24T09:30:58.107Z,79.28
2017-12-24T09:31:38.595Z,79.86
2017-12-24T09:32:19.807Z,79.67
2017-12-24T09:33:01.044Z,79.48
2017-12-24T09:33:41.289Z,79.38
2017-12-24T09:34:22.152Z,79.28
2017-12-24T09:35:02.860Z,79.38
2017-12-24T09:35:43.673Z,79.38
2017-12-24T09:36:25.703Z,79.19
2017-12-24T09:42:57.108Z,78.94
2017-12-24T09:44:28.557Z,78.47
2017-12-24T09:45:09.834Z,78.94
2017-12-24T09:45:51.078Z,78.56
2017-12-24T09:46:32.156Z,78.28
2017-12-24T09:47:13.539Z,78.09
2017-12-24T09:49:33.597Z,78.18
2017-12-24T09:50:14.647Z,78.18
2017-12-24T09:50:56.106Z,77.42
2017-12-24T09:51:40.094Z,77.51
2017-12-24T09:52:20.476Z,77.8
2017-12-24T09:53:00.934Z,77.7
2017-12-24T09:53:42.332Z,78.09
2017-12-24T09:54:27.778Z,78.09
2017-12-24T09:55:11.924Z,77.7
2017-12-24T09:55:52.629Z,77.13
2017-12-24T09:56:35.938Z,77.26
2017-12-24T09:57:16.869Z,76.98
2017-12-24T09:57:57.801Z,77.36
2017-12-24T09:58:40.018Z,77.26
2017-12-24T09:59:20.561Z,77.17
2017-12-24T10:00:01.650Z,76.6
2017-12-24T10:00:42.012Z,76.88
2017-12-24T10:01:23.042Z,76.6
2017-12-24T10:02:06.546Z,76.69
2017-12-24T10:02:47.332Z,76.79
2017-12-24T10:41:50.737Z,77.99
2017-12-24T10:42:32.262Z,77.8
2017-12-24T10:43:12.942Z,78.09
2017-12-24T10:45:04.185Z,77.99
2017-12-24T10:45:43.480Z,77.89
2017-12-24T10:46:23.900Z,77.89
2017-12-24T10:47:05.351Z,78.09
2017-12-24T10:47:45.502Z,78.09
2017-12-24T10:48:28.505Z,77.61
2017-12-24T10:49:09.194Z,77
2017-12-24T10:49:49.893Z,77.8
2017-12-24T10:50:30.405Z,78.18
2017-12-24T10:51:11.332Z,78.23
2017-12-24T10:51:52.146Z,78.05
2017-12-24T10:52:33.202Z,77.8
2017-12-24T10:53:14.123Z,77.61
2017-12-24T10:53:54.813Z,78.28
2017-12-24T10:54:35.513Z,77.51
2017-12-24T10:55:16.892Z,77.42